Time;durP1;ratioP1;P1;durP2;ratioP2;P2;SDS_P1;SDS_P2;PMS_P1;PMS_P2;Temp;Humidity;BMP_temperature;BMP_pressure;BME280_temperature;BME280_humidity;BME280_pressure;Samples;Min_cycle;Max_cycle;Signal;HPM_P1;HPM_P2
2021/05/09 05:39:59;;;;;;;14.80;13.80;;;13.20;99.90;;;;;;5124851;22;20491;-67
2021/05/09 05:42:25;;;;;;;12.50;11.90;;;13.50;99.90;;;;;;4977161;28;20859;-66
2021/05/09 05:44:51;;;;;;;12.60;11.90;;;13.80;99.90;;;;;;4971071;28;20455;-67
2021/05/09 05:47:17;;;;;;;12.13;11.53;;;13.50;99.90;;;;;;4971419;28;20467;-70
2021/05/09 05:49:43;;;;;;;12.50;11.70;;;13.20;99.90;;;;;;4971050;28;20451;-68
2021/05/09 05:52:10;;;;;;;13.57;12.60;;;13.10;99.90;;;;;;4970952;28;20448;-68
2021/05/09 05:54:36;;;;;;;14.00;12.93;;;12.90;99.90;;;;;;4970823;28;20454;-68
2021/05/09 05:57:03;;;;;;;13.97;13.17;;;12.90;99.90;;;;;;4971269;28;20887;-68
2021/05/09 05:59:30;;;;;;;12.00;11.20;;;13.30;99.90;;;;;;4971139;28;20451;-68
2021/05/09 06:01:56;;;;;;;12.40;11.70;;;13.80;99.90;;;;;;4970668;28;20486;-68
2021/05/09 06:04:22;;;;;;;14.40;13.50;;;13.90;99.90;;;;;;4971039;28;20452;-68
2021/05/09 06:06:48;;;;;;;12.20;11.50;;;13.90;99.90;;;;;;4970923;28;20459;-68
2021/05/09 06:09:14;;;;;;;12.87;12.00;;;14.30;99.90;;;;;;4970780;28;20506;-68
2021/05/09 06:11:40;;;;;;;11.87;11.27;;;14.80;99.90;;;;;;4970953;28;20498;-68
2021/05/09 06:14:07;;;;;;;12.30;11.50;;;15.20;99.90;;;;;;4970843;28;20462;-72
2021/05/09 06:16:34;;;;;;;12.93;12.10;;;15.60;99.90;;;;;;4970747;28;20452;-69
2021/05/09 06:19:00;;;;;;;12.60;12.00;;;15.90;99.90;;;;;;4968778;28;20455;-69
2021/05/09 06:21:26;;;;;;;12.00;11.40;;;16.30;99.90;;;;;;4970632;28;20488;-70
2021/05/09 06:23:53;;;;;;;13.23;12.40;;;16.50;99.90;;;;;;4970541;28;20467;-69
2021/05/09 06:26:19;;;;;;;13.00;12.07;;;16.80;99.90;;;;;;4970974;28;20463;-69
2021/05/09 06:28:45;;;;;;;11.43;10.83;;;17.30;99.90;;;;;;4969110;28;20484;-70
2021/05/09 06:31:12;;;;;;;11.60;11.00;;;17.70;98.70;;;;;;4970895;28;21002;-70
2021/05/09 06:33:38;;;;;;;11.63;11.10;;;18.00;97.80;;;;;;4969538;28;20456;-70
2021/05/09 06:36:05;;;;;;;11.00;10.50;;;18.30;97.50;;;;;;4974010;28;20510;-69
2021/05/09 06:38:31;;;;;;;11.70;11.20;;;18.40;96.40;;;;;;4974119;28;20541;-70
2021/05/09 06:40:57;;;;;;;11.93;11.33;;;18.30;96.50;;;;;;4974238;28;20483;-70
2021/05/09 06:43:24;;;;;;;12.87;12.13;;;18.40;96.60;;;;;;4974050;28;20941;-70
2021/05/09 06:45:50;;;;;;;13.17;12.37;;;18.90;96.00;;;;;;4974112;28;20455;-70
2021/05/09 06:48:17;;;;;;;11.47;10.97;;;19.60;95.20;;;;;;4974204;28;20466;-71
2021/05/09 06:50:44;;;;;;;11.90;11.13;;;20.40;93.50;;;;;;4974034;28;20866;-71
2021/05/09 06:53:10;;;;;;;11.13;10.63;;;20.30;93.00;;;;;;4973856;28;20448;-71
2021/05/09 06:55:36;;;;;;;11.00;10.50;;;20.60;92.80;;;;;;4973953;28;20470;-70
2021/05/09 06:58:04;;;;;;;10.80;10.30;;;20.90;92.20;;;;;;4974066;28;20801;-70
2021/05/09 07:00:30;;;;;;;12.00;11.30;;;21.10;91.30;;;;;;4974042;28;20527;-70
2021/05/09 07:02:56;;;;;;;10.70;10.20;;;21.40;91.10;;;;;;4973698;28;21245;-70
2021/05/09 07:05:23;;;;;;;10.23;9.80;;;21.60;90.30;;;;;;4973766;28;20837;-70
2021/05/09 07:07:50;;;;;;;10.67;10.07;;;21.80;89.30;;;;;;4973732;28;20898;-70
2021/05/09 07:10:18;;;;;;;10.07;9.67;;;21.30;90.20;;;;;;4973848;28;20452;-70
2021/05/09 07:12:44;;;;;;;11.33;10.53;;;21.50;90.30;;;;;;4973575;28;20480;-70
2021/05/09 07:15:13;;;;;;;10.63;10.13;;;21.50;90.00;;;;;;4973624;28;20479;-71
2021/05/09 07:17:39;;;;;;;10.27;9.70;;;21.30;89.80;;;;;;4973550;28;21009;-71
2021/05/09 07:20:07;;;;;;;11.27;10.77;;;21.50;90.20;;;;;;4973579;28;20510;-70
2021/05/09 07:22:38;;;;;;;12.53;11.93;;;21.70;88.90;;;;;;4973393;28;20491;-71
2021/05/09 07:25:05;;;;;;;12.30;11.40;;;22.10;87.80;;;;;;4973591;28;20518;-71
2021/05/09 07:27:31;;;;;;;11.90;11.40;;;22.50;86.60;;;;;;4973594;28;20454;-70
2021/05/09 07:29:57;;;;;;;10.33;9.93;;;23.00;84.60;;;;;;4973336;28;20455;-71
2021/05/09 07:32:23;;;;;;;10.20;9.80;;;22.90;83.70;;;;;;4973210;28;20501;-69
2021/05/09 07:34:50;;;;;;;10.80;10.40;;;22.80;83.40;;;;;;4973515;28;20942;-71
2021/05/09 07:37:17;;;;;;;10.50;10.10;;;23.10;83.10;;;;;;4973116;28;20484;-70
2021/05/09 07:39:44;;;;;;;10.47;9.97;;;23.50;79.00;;;;;;4973127;28;20852;-69
2021/05/09 07:42:10;;;;;;;11.20;10.80;;;23.40;79.10;;;;;;4973013;28;20475;-69
2021/05/09 07:44:36;;;;;;;10.30;9.90;;;23.50;77.60;;;;;;4972956;28;20555;-70
2021/05/09 07:47:02;;;;;;;9.67;9.33;;;23.50;78.00;;;;;;4973208;28;20961;-72
2021/05/09 07:49:29;;;;;;;10.93;10.47;;;23.60;76.40;;;;;;4973103;28;20514;-72
2021/05/09 07:51:55;;;;;;;10.03;9.63;;;23.60;75.90;;;;;;4973227;28;21182;-72
2021/05/09 07:54:21;;;;;;;9.40;9.10;;;23.70;76.40;;;;;;4973074;28;20460;-72
2021/05/09 07:56:48;;;;;;;9.90;9.50;;;23.70;74.00;;;;;;4973339;28;20448;-72
2021/05/09 07:59:14;;;;;;;10.97;10.57;;;23.70;74.40;;;;;;4973038;28;20455;-72
2021/05/09 08:01:40;;;;;;;9.80;9.47;;;24.20;73.80;;;;;;4972905;28;21005;-72
2021/05/09 08:04:06;;;;;;;10.47;10.07;;;24.10;72.90;;;;;;4972827;28;20463;-71
2021/05/09 08:06:32;;;;;;;9.30;9.00;;;24.10;73.80;;;;;;4973132;28;20456;-72
2021/05/09 08:08:59;;;;;;;9.97;9.60;;;24.00;72.90;;;;;;4972742;28;20455;-71
2021/05/09 08:11:25;;;;;;;9.87;9.50;;;24.10;73.90;;;;;;4972780;28;20443;-71
2021/05/09 08:13:52;;;;;;;10.40;9.90;;;24.60;71.90;;;;;;4972758;28;20463;-72
2021/05/09 08:16:18;;;;;;;10.47;10.07;;;24.70;71.90;;;;;;4972790;28;20474;-72
2021/05/09 08:18:44;;;;;;;10.10;9.70;;;25.10;71.10;;;;;;4970972;28;20930;-71
2021/05/09 08:21:10;;;;;;;9.90;9.50;;;25.70;69.80;;;;;;4972747;28;20491;-73
2021/05/09 08:23:38;;;;;;;9.50;9.20;;;25.90;68.20;;;;;;4972786;28;20452;-73
2021/05/09 08:26:04;;;;;;;9.97;9.60;;;25.80;67.10;;;;;;4972906;28;20832;-73
2021/05/09 08:28:31;;;;;;;10.30;10.00;;;26.20;67.20;;;;;;4972791;28;20452;-73
2021/05/09 08:30:58;;;;;;;10.20;9.90;;;26.50;65.60;;;;;;4972531;28;20476;-73
2021/05/09 08:33:24;;;;;;;9.80;9.40;;;26.30;66.20;;;;;;4972606;28;20466;-73
2021/05/09 08:35:50;;;;;;;10.63;10.23;;;26.60;65.80;;;;;;4972622;28;20463;-73
2021/05/09 08:38:16;;;;;;;10.97;10.43;;;27.10;65.10;;;;;;4972382;28;20992;-73
2021/05/09 08:40:42;;;;;;;11.63;11.13;;;27.30;62.90;;;;;;4972580;28;20455;-74
2021/05/09 08:43:09;;;;;;;10.77;10.20;;;27.20;64.00;;;;;;4972292;28;20498;-72
2021/05/09 08:45:35;;;;;;;10.10;9.80;;;27.80;63.70;;;;;;4972478;28;20482;-73
2021/05/09 08:48:02;;;;;;;10.07;9.67;;;28.00;61.80;;;;;;4972628;28;20460;-72
2021/05/09 08:50:29;;;;;;;10.97;10.57;;;28.20;60.90;;;;;;4972470;28;20868;-71
2021/05/09 08:52:56;;;;;;;10.60;10.20;;;28.00;61.40;;;;;;4972402;28;20498;-71
2021/05/09 08:55:25;;;;;;;10.73;10.33;;;27.70;61.40;;;;;;4972461;28;20459;-71
2021/05/09 08:57:54;;;;;;;10.57;10.17;;;27.60;62.60;;;;;;4971969;28;20456;-71
2021/05/09 09:00:22;;;;;;;11.47;10.97;;;28.40;62.00;;;;;;4971434;28;20467;-71
2021/05/09 09:02:49;;;;;;;12.47;11.97;;;28.70;60.60;;;;;;4971777;28;20483;-71
2021/05/09 09:05:16;;;;;;;11.80;11.40;;;29.10;60.00;;;;;;4971694;28;20451;-71
2021/05/09 09:07:45;;;;;;;12.40;11.90;;;29.00;59.80;;;;;;4971782;28;20627;-71
2021/05/09 09:10:27;;;;;;;13.97;13.27;;;29.20;59.80;;;;;;4971633;28;20478;-71
2021/05/09 09:12:54;;;;;;;10.83;10.43;;;29.20;58.50;;;;;;4971523;28;20452;-71
2021/05/09 09:15:20;;;;;;;11.37;10.93;;;29.00;57.80;;;;;;4971761;28;20812;-71
2021/05/09 09:17:46;;;;;;;11.03;10.73;;;29.60;58.10;;;;;;4972073;28;20459;-71
2021/05/09 09:20:16;;;;;;;10.40;10.10;;;29.80;56.80;;;;;;4971412;28;20474;-71
2021/05/09 09:22:59;;;;;;;11.23;10.73;;;29.80;55.90;;;;;;4971404;28;20495;-74
2021/05/09 09:25:27;;;;;;;12.60;12.07;;;29.80;56.10;;;;;;4971761;28;20451;-71
2021/05/09 09:27:54;;;;;;;11.77;11.37;;;30.00;55.30;;;;;;4971614;28;20463;-71
2021/05/09 09:30:22;;;;;;;10.50;10.10;;;30.00;56.00;;;;;;4971655;28;20448;-71
2021/05/09 09:33:08;;;;;;;10.87;10.47;;;30.00;55.00;;;;;;4971654;28;20512;-70
2021/05/09 09:35:36;;;;;;;10.60;10.20;;;30.00;54.50;;;;;;4971635;28;20451;-73
2021/05/09 09:38:20;;;;;;;11.47;10.90;;;29.70;53.90;;;;;;4971061;28;20479;-74
2021/05/09 09:41:08;;;;;;;11.37;10.97;;;29.80;53.80;;;;;;4971700;28;20471;-70
2021/05/09 09:43:34;;;;;;;12.63;11.87;;;29.80;53.20;;;;;;4971577;28;20510;-71
2021/05/09 09:46:01;;;;;;;10.63;10.30;;;30.00;53.70;;;;;;4971433;28;20813;-72
2021/05/09 09:48:36;;;;;;;9.90;9.50;;;30.60;52.10;;;;;;4971586;28;20456;-71
2021/05/09 09:51:03;;;;;;;11.17;10.50;;;30.70;51.20;;;;;;4971414;28;20455;-71
2021/05/09 09:53:33;;;;;;;11.63;11.23;;;31.00;50.90;;;;;;4971362;28;20448;-71
2021/05/09 09:56:01;;;;;;;11.97;11.57;;;31.40;49.20;;;;;;4971319;28;20455;-70
2021/05/09 09:58:44;;;;;;;11.93;11.63;;;31.70;48.60;;;;;;4971287;28;21008;-70
2021/05/09 10:01:11;;;;;;;12.10;11.70;;;32.50;47.00;;;;;;4968992;28;20459;-71
2021/05/09 10:03:38;;;;;;;11.67;11.17;;;33.10;44.40;;;;;;4971274;28;20528;-73
2021/05/09 10:06:05;;;;;;;11.53;11.10;;;32.60;44.10;;;;;;4971249;28;20459;-72
2021/05/09 10:08:35;;;;;;;11.30;10.90;;;32.30;42.90;;;;;;4971881;28;20487;-72
2021/05/09 10:11:02;;;;;;;12.20;11.60;;;32.40;42.60;;;;;;4974895;28;20451;-71
2021/05/09 10:13:28;;;;;;;12.60;12.10;;;33.00;41.90;;;;;;4974935;28;20466;-72
2021/05/09 10:15:55;;;;;;;14.03;13.07;;;32.80;40.70;;;;;;4974805;28;20463;-71
2021/05/09 10:18:23;;;;;;;13.47;12.83;;;32.30;41.80;;;;;;4974628;28;20673;-72
2021/05/09 10:20:49;;;;;;;12.20;11.80;;;32.20;41.90;;;;;;4974820;28;20814;-72
2021/05/09 10:23:18;;;;;;;11.93;11.43;;;32.40;40.60;;;;;;4974154;28;20491;-72
2021/05/09 10:25:47;;;;;;;12.40;11.80;;;32.20;39.90;;;;;;4974683;28;20466;-73
2021/05/09 10:28:14;;;;;;;11.27;10.87;;;31.80;38.80;;;;;;4974380;28;20945;-72
2021/05/09 10:30:45;;;;;;;11.20;10.90;;;31.80;39.90;;;;;;4974657;28;20693;-72
2021/05/09 10:33:44;;;;;;;11.20;10.83;;;32.20;39.30;;;;;;4974470;28;20836;-72
2021/05/09 10:36:27;;;;;;;11.57;11.20;;;33.00;38.70;;;;;;4974449;28;20934;-72
2021/05/09 10:39:14;;;;;;;12.87;12.30;;;33.60;36.80;;;;;;4973736;28;20538;-72
2021/05/09 10:42:19;;;;;;;11.67;11.27;;;34.50;36.40;;;;;;4974375;28;20546;-72
2021/05/09 10:45:26;;;;;;;11.43;11.03;;;34.40;33.80;;;;;;4974622;28;20974;-72
2021/05/09 10:48:29;;;;;;;11.47;10.80;;;33.30;35.20;;;;;;4974814;28;20483;-72
2021/05/09 10:51:23;;;;;;;11.57;11.27;;;32.70;35.80;;;;;;4974593;28;20518;-73
2021/05/09 10:53:50;;;;;;;11.30;11.00;;;32.10;36.60;;;;;;4974689;28;20444;-71
2021/05/09 10:56:33;;;;;;;11.97;11.47;;;31.80;37.00;;;;;;4974551;28;20455;-70
2021/05/09 10:59:01;;;;;;;12.10;11.73;;;32.10;37.80;;;;;;4974566;28;20462;-71
2021/05/09 11:01:29;;;;;;;11.50;11.10;;;32.90;36.30;;;;;;4974296;28;20848;-71
2021/05/09 11:04:00;;;;;;;11.40;10.80;;;32.30;36.50;;;;;;4974514;28;20546;-71
2021/05/09 11:06:44;;;;;;;11.40;11.00;;;32.50;37.20;;;;;;4974381;28;20452;-72
2021/05/09 11:09:12;;;;;;;11.50;11.10;;;33.40;36.30;;;;;;4974299;28;20451;-72
2021/05/09 11:12:01;;;;;;;11.20;10.87;;;33.50;35.10;;;;;;4974304;28;20448;-72
2021/05/09 11:14:32;;;;;;;12.43;11.93;;;33.90;35.00;;;;;;4974531;28;20459;-71
2021/05/09 11:17:04;;;;;;;11.60;11.30;;;35.00;34.00;;;;;;4974385;28;20456;-72
2021/05/09 11:19:49;;;;;;;12.33;11.63;;;35.60;31.10;;;;;;4973857;28;20455;-71
2021/05/09 11:22:26;;;;;;;12.27;11.77;;;34.90;31.40;;;;;;4973995;28;20498;-72
2021/05/09 11:24:58;;;;;;;12.20;11.80;;;34.60;32.50;;;;;;4974093;28;20455;-72
2021/05/09 11:27:25;;;;;;;11.60;11.00;;;35.00;31.40;;;;;;4974007;28;21045;-72
2021/05/09 11:29:53;;;;;;;11.70;11.30;;;34.50;31.30;;;;;;4974158;28;20490;-71
2021/05/09 11:32:21;;;;;;;10.80;10.50;;;34.00;32.00;;;;;;4973946;28;20957;-71
2021/05/09 11:34:53;;;;;;;10.63;10.33;;;33.90;31.10;;;;;;4973909;28;20451;-71
2021/05/09 11:37:20;;;;;;;11.53;11.20;;;33.60;30.80;;;;;;4973826;28;20478;-72
2021/05/09 11:39:47;;;;;;;11.87;11.47;;;33.20;31.60;;;;;;4973702;28;20494;-71
2021/05/09 11:42:15;;;;;;;11.53;11.03;;;33.50;31.90;;;;;;4973527;28;20515;-72
2021/05/09 11:44:43;;;;;;;10.77;10.47;;;33.50;31.70;;;;;;4973596;28;20458;-72
2021/05/09 11:47:12;;;;;;;11.03;10.63;;;33.60;30.70;;;;;;4973736;28;20460;-71
2021/05/09 11:49:40;;;;;;;10.43;10.13;;;33.30;31.30;;;;;;4973592;28;20849;-72
2021/05/09 11:52:09;;;;;;;10.70;10.33;;;33.30;31.10;;;;;;4973505;28;20483;-71
2021/05/09 11:54:38;;;;;;;11.40;11.00;;;34.30;31.30;;;;;;4973345;28;20451;-72
2021/05/09 11:57:05;;;;;;;11.63;11.23;;;35.60;29.30;;;;;;4973557;28;20859;-72
2021/05/09 11:59:37;;;;;;;12.30;11.47;;;35.70;29.40;;;;;;4973510;28;20807;-72
2021/05/09 12:02:18;;;;;;;13.00;12.53;;;36.20;29.00;;;;;;4973435;28;20491;-73
2021/05/09 12:04:49;;;;;;;12.70;12.30;;;37.10;28.10;;;;;;4973306;28;20451;-72
2021/05/09 12:07:17;;;;;;;12.30;11.80;;;36.70;28.00;;;;;;4973338;28;20801;-71
2021/05/09 12:09:59;;;;;;;12.53;12.07;;;36.80;28.10;;;;;;4972983;28;20459;-71
2021/05/09 12:12:28;;;;;;;12.30;11.90;;;36.30;27.90;;;;;;4973073;28;20864;-71
2021/05/09 12:14:54;;;;;;;12.07;11.67;;;36.40;28.50;;;;;;4973138;28;20467;-72
2021/05/09 12:17:25;;;;;;;12.07;11.67;;;36.60;28.10;;;;;;4972974;28;20455;-72
2021/05/09 12:19:54;;;;;;;11.73;11.33;;;36.20;28.70;;;;;;4973022;28;20708;-72
2021/05/09 12:22:21;;;;;;;11.60;11.20;;;36.50;28.30;;;;;;4972910;28;21027;-72
2021/05/09 12:24:52;;;;;;;11.10;10.80;;;36.40;27.70;;;;;;4972927;28;20809;-70
2021/05/09 12:27:19;;;;;;;11.70;11.30;;;35.10;28.90;;;;;;4972513;28;20456;-69
2021/05/09 12:29:47;;;;;;;11.20;10.90;;;34.80;29.50;;;;;;4973050;28;20498;-69
2021/05/09 12:32:29;;;;;;;11.97;11.57;;;34.30;29.20;;;;;;4971953;28;20786;-69
2021/05/09 12:35:05;;;;;;;11.80;11.50;;;34.70;28.70;;;;;;4972730;28;20554;-69
2021/05/09 12:37:33;;;;;;;12.17;11.77;;;35.40;29.00;;;;;;4972858;28;20503;-69
2021/05/09 12:40:20;;;;;;;12.33;11.93;;;35.80;28.20;;;;;;4972647;28;20846;-69
2021/05/09 12:42:58;;;;;;;12.43;12.00;;;35.80;27.80;;;;;;4972789;28;20498;-70
2021/05/09 12:45:33;;;;;;;10.90;10.60;;;36.00;27.70;;;;;;4972621;28;20785;-69
2021/05/09 12:48:10;;;;;;;12.90;12.50;;;36.30;27.70;;;;;;4973210;28;20462;-69
2021/05/09 12:51:01;;;;;;;13.03;12.53;;;36.70;27.50;;;;;;4988183;28;20443;-69
2021/05/09 12:53:44;;;;;;;12.60;12.20;;;36.60;27.00;;;;;;4991962;28;20450;-69
2021/05/09 12:56:28;;;;;;;11.57;11.27;;;36.00;28.20;;;;;;4991772;28;20933;-69
2021/05/09 12:59:06;;;;;;;11.60;11.30;;;35.40;27.00;;;;;;4991910;28;20513;-68
2021/05/09 13:01:34;;;;;;;11.40;11.10;;;35.00;27.70;;;;;;4991774;28;20991;-69
2021/05/09 13:04:01;;;;;;;11.73;11.33;;;35.40;27.80;;;;;;4972382;28;20455;-69
2021/05/09 13:06:28;;;;;;;13.20;12.70;;;36.60;27.40;;;;;;4972201;28;20455;-69
2021/05/09 13:08:55;;;;;;;13.17;12.77;;;37.20;27.30;;;;;;4972246;28;20451;-69
2021/05/09 13:11:22;;;;;;;13.37;12.87;;;37.20;27.20;;;;;;4972229;28;20462;-69
2021/05/09 13:13:49;;;;;;;12.30;11.90;;;38.20;26.10;;;;;;4972350;28;20815;-68
2021/05/09 13:16:15;;;;;;;12.20;11.90;;;38.20;25.70;;;;;;4972238;28;20452;-69
2021/05/09 13:18:42;;;;;;;12.33;11.93;;;37.30;26.00;;;;;;4971972;28;20448;-69
2021/05/09 13:21:08;;;;;;;13.43;12.93;;;36.30;26.60;;;;;;4971934;28;20544;-69
2021/05/09 13:23:35;;;;;;;13.03;12.43;;;36.10;26.70;;;;;;4972236;28;20491;-69
2021/05/09 13:26:01;;;;;;;11.50;11.10;;;36.70;27.00;;;;;;4972286;28;20460;-68
2021/05/09 13:28:28;;;;;;;10.93;10.63;;;36.30;26.20;;;;;;4971924;28;20455;-68
2021/05/09 13:30:54;;;;;;;12.00;11.60;;;35.00;27.40;;;;;;4971800;28;20769;-69
2021/05/09 13:33:20;;;;;;;11.33;10.93;;;34.10;27.70;;;;;;4972010;28;20808;-70
2021/05/09 13:35:46;;;;;;;10.80;10.50;;;34.00;28.60;;;;;;4972144;28;20451;-70
2021/05/09 13:38:12;;;;;;;12.30;11.50;;;34.50;28.00;;;;;;4971573;28;20475;-69
2021/05/09 13:40:39;;;;;;;11.10;10.70;;;34.90;27.90;;;;;;4971835;28;20824;-68
2021/05/09 13:43:06;;;;;;;12.13;11.73;;;35.80;27.40;;;;;;4973466;28;20487;-71
2021/05/09 13:45:32;;;;;;;12.30;11.90;;;36.20;27.10;;;;;;4975921;28;20451;-71
2021/05/09 13:47:59;;;;;;;13.03;12.43;;;36.30;27.00;;;;;;4975828;28;20455;-69
2021/05/09 13:50:26;;;;;;;11.67;11.27;;;36.00;27.20;;;;;;4975758;28;20460;-69
2021/05/09 13:52:52;;;;;;;12.30;11.90;;;36.00;27.20;;;;;;4975640;28;20467;-69
2021/05/09 13:55:19;;;;;;;13.13;12.73;;;35.80;27.10;;;;;;4975739;28;20518;-70
2021/05/09 13:57:46;;;;;;;12.83;12.43;;;35.80;27.30;;;;;;4975614;28;20455;-69
2021/05/09 14:00:13;;;;;;;13.43;13.03;;;36.10;27.20;;;;;;4975586;28;20977;-69
2021/05/09 14:02:39;;;;;;;12.93;12.53;;;36.50;26.70;;;;;;4975417;28;20539;-69
2021/05/09 14:05:06;;;;;;;12.03;11.60;;;36.70;27.20;;;;;;4975493;28;20455;-69
2021/05/09 14:07:32;;;;;;;12.33;11.93;;;37.00;26.60;;;;;;4975506;28;20459;-70
2021/05/09 14:09:59;;;;;;;11.73;11.33;;;36.60;26.20;;;;;;4975592;28;20455;-70
2021/05/09 14:12:25;;;;;;;13.10;12.70;;;36.20;26.40;;;;;;4975341;28;20447;-69
2021/05/09 14:14:55;;;;;;;12.20;11.80;;;36.30;26.80;;;;;;4975376;28;20510;-70
2021/05/09 14:17:21;;;;;;;12.23;11.73;;;36.70;26.20;;;;;;4975248;28;20459;-70
2021/05/09 14:19:47;;;;;;;11.93;11.63;;;36.20;26.80;;;;;;4975308;28;20506;-70
2021/05/09 14:22:13;;;;;;;11.40;11.10;;;35.60;27.40;;;;;;4974836;28;20537;-69
2021/05/09 14:24:40;;;;;;;11.53;11.13;;;34.30;28.20;;;;;;4975005;28;20447;-69
2021/05/09 14:27:07;;;;;;;10.80;10.50;;;33.80;28.90;;;;;;4975140;28;20463;-70
2021/05/09 14:29:33;;;;;;;10.37;10.07;;;33.70;28.50;;;;;;4975129;28;20463;-70
2021/05/09 14:32:00;;;;;;;12.00;11.60;;;33.40;29.00;;;;;;4974963;28;20449;-70
2021/05/09 14:34:26;;;;;;;12.30;11.80;;;33.50;29.30;;;;;;4974714;28;20482;-69
2021/05/09 14:36:55;;;;;;;11.20;10.80;;;33.20;29.00;;;;;;4974612;28;20538;-70
2021/05/09 14:39:22;;;;;;;12.20;11.80;;;33.80;28.90;;;;;;4974645;28;20927;-70
2021/05/09 14:41:48;;;;;;;11.53;11.23;;;33.90;28.60;;;;;;4974946;28;20495;-69
2021/05/09 14:44:14;;;;;;;12.53;12.10;;;33.70;28.60;;;;;;4974708;28;20452;-70
2021/05/09 14:46:41;;;;;;;12.57;12.10;;;33.00;29.40;;;;;;4974593;28;20466;-70
2021/05/09 14:49:08;;;;;;;12.40;11.90;;;33.30;29.20;;;;;;4974627;28;20859;-70
2021/05/09 14:51:35;;;;;;;11.20;10.80;;;33.10;29.80;;;;;;4974564;28;20447;-70
2021/05/09 14:54:03;;;;;;;11.10;10.70;;;32.50;30.20;;;;;;4974021;28;20478;-69
2021/05/09 14:56:29;;;;;;;11.10;10.70;;;32.00;30.80;;;;;;4974661;28;20479;-69
2021/05/09 14:58:55;;;;;;;10.97;10.57;;;31.50;31.40;;;;;;4974461;28;20633;-69
2021/05/09 15:01:22;;;;;;;10.43;10.13;;;31.00;31.70;;;;;;4991456;28;20443;-69
2021/05/09 15:03:48;;;;;;;11.07;10.77;;;30.60;32.10;;;;;;4992616;28;20482;-69
2021/05/09 15:06:15;;;;;;;11.63;11.23;;;30.30;32.10;;;;;;4992630;28;20450;-69
2021/05/09 15:08:42;;;;;;;11.37;10.87;;;30.20;32.50;;;;;;4992599;28;20447;-69
2021/05/09 15:11:08;;;;;;;11.10;10.70;;;30.30;32.80;;;;;;4992422;28;20450;-69
2021/05/09 15:13:34;;;;;;;10.07;9.77;;;30.40;33.00;;;;;;4992512;28;20438;-69
2021/05/09 15:16:00;;;;;;;10.50;10.20;;;30.30;32.70;;;;;;4992335;28;20439;-69
2021/05/09 15:18:26;;;;;;;10.90;10.60;;;30.30;32.40;;;;;;4992295;28;20455;-69
2021/05/09 15:20:53;;;;;;;10.70;10.30;;;30.30;32.60;;;;;;4992481;28;20834;-69
2021/05/09 15:23:20;;;;;;;10.53;10.23;;;30.40;33.20;;;;;;4992503;28;20561;-69
2021/05/09 15:25:47;;;;;;;10.70;10.30;;;30.50;33.10;;;;;;4992354;28;20447;-69
2021/05/09 15:28:13;;;;;;;11.40;11.10;;;30.40;32.60;;;;;;4992170;28;20467;-69
2021/05/09 15:30:39;;;;;;;11.47;11.07;;;30.50;32.50;;;;;;4992102;28;20443;-69
2021/05/09 15:33:05;;;;;;;11.43;10.90;;;30.50;32.20;;;;;;4992162;28;20937;-69
2021/05/09 15:35:31;;;;;;;11.50;11.10;;;30.60;33.00;;;;;;4992101;28;20443;-69
2021/05/09 15:37:57;;;;;;;10.47;10.07;;;30.50;32.50;;;;;;4992217;28;20466;-69
2021/05/09 15:40:25;;;;;;;11.80;11.40;;;30.40;32.80;;;;;;5000925;28;20458;-68
2021/05/09 15:42:52;;;;;;;11.27;10.97;;;30.30;33.00;;;;;;5002635;28;20540;-68
2021/05/09 15:45:18;;;;;;;11.67;11.30;;;30.30;32.60;;;;;;5001389;28;20458;-68
2021/05/09 15:47:44;;;;;;;12.60;12.00;;;30.30;32.70;;;;;;5000889;28;20449;-68
2021/05/09 15:50:11;;;;;;;10.13;9.83;;;30.30;32.80;;;;;;5002526;28;20497;-68
2021/05/09 15:52:37;;;;;;;10.33;9.83;;;30.30;33.10;;;;;;5010243;28;20445;-68
2021/05/09 15:55:04;;;;;;;10.80;10.20;;;30.30;32.70;;;;;;5012714;28;20477;-68
2021/05/09 15:57:31;;;;;;;11.30;10.90;;;30.30;32.70;;;;;;5012543;28;20450;-68
2021/05/09 15:59:57;;;;;;;10.70;10.40;;;30.20;32.50;;;;;;5012495;28;20453;-68
2021/05/09 16:02:24;;;;;;;10.93;10.57;;;30.10;32.80;;;;;;5012400;28;20557;-68
2021/05/09 16:04:50;;;;;;;10.67;10.37;;;30.10;32.70;;;;;;5012504;28;20453;-69
2021/05/09 16:07:16;;;;;;;10.57;10.27;;;30.10;32.80;;;;;;5012290;28;20508;-69
2021/05/09 16:09:43;;;;;;;10.80;10.37;;;30.20;32.60;;;;;;5012312;28;20462;-69
2021/05/09 16:12:10;;;;;;;10.70;10.40;;;30.10;32.40;;;;;;5012270;28;20446;-70
2021/05/09 16:14:37;;;;;;;10.63;10.23;;;30.10;32.80;;;;;;5012251;28;20552;-69
2021/05/09 16:17:03;;;;;;;10.63;10.23;;;30.10;33.30;;;;;;5012227;28;20446;-68
2021/05/09 16:19:29;;;;;;;9.63;9.23;;;30.10;33.90;;;;;;5001798;28;20453;-68
2021/05/09 16:21:55;;;;;;;11.53;11.03;;;29.80;33.50;;;;;;5000377;28;20478;-68
2021/05/09 16:24:22;;;;;;;11.83;11.43;;;29.60;33.60;;;;;;5000376;28;20450;-68
2021/05/09 16:26:49;;;;;;;11.70;11.30;;;29.60;34.40;;;;;;5002019;28;20454;-68
2021/05/09 16:29:15;;;;;;;11.27;10.83;;;29.60;34.40;;;;;;5000511;28;20466;-68
2021/05/09 16:31:42;;;;;;;10.53;10.20;;;29.50;34.60;;;;;;5000413;28;20446;-68
2021/05/09 16:34:09;;;;;;;9.47;9.17;;;29.50;34.30;;;;;;5001546;28;20808;-68
2021/05/09 16:36:35;;;;;;;10.40;10.10;;;29.50;34.50;;;;;;5000216;28;20446;-68
2021/05/09 16:39:02;;;;;;;10.40;10.00;;;29.50;34.90;;;;;;5000178;28;20465;-68
2021/05/09 16:41:28;;;;;;;10.97;10.57;;;29.40;35.40;;;;;;5001732;28;20458;-68
2021/05/09 16:43:54;;;;;;;11.43;11.03;;;29.30;35.60;;;;;;4999863;28;20735;-68
2021/05/09 16:46:20;;;;;;;10.20;9.90;;;29.30;36.30;;;;;;5000437;28;20469;-68
2021/05/09 16:48:47;;;;;;;10.93;10.53;;;29.30;36.60;;;;;;5001533;28;20496;-68
2021/05/09 16:51:13;;;;;;;11.33;10.80;;;29.20;36.50;;;;;;4999639;28;20447;-68
2021/05/09 16:53:46;;;;;;;10.50;10.10;;;29.20;36.90;;;;;;5000161;28;21166;-68
2021/05/09 16:56:13;;;;;;;11.60;11.20;;;29.10;36.30;;;;;;4997113;28;20451;-67
2021/05/09 16:58:39;;;;;;;11.40;10.90;;;29.20;37.30;;;;;;4999711;28;20449;-68
2021/05/09 17:01:05;;;;;;;11.43;11.03;;;29.20;36.70;;;;;;5000834;28;20442;-68
2021/05/09 17:03:31;;;;;;;10.40;10.00;;;29.20;37.30;;;;;;4995934;28;20493;-68
2021/05/09 17:05:58;;;;;;;12.10;11.50;;;29.20;37.10;;;;;;4991381;28;20455;-68
2021/05/09 17:08:25;;;;;;;11.37;10.97;;;29.10;37.20;;;;;;4990959;28;20443;-68
2021/05/09 17:10:52;;;;;;;12.30;11.80;;;29.00;37.20;;;;;;4991225;28;20447;-68
2021/05/09 17:13:21;;;;;;;10.43;10.03;;;29.00;37.50;;;;;;4991220;28;20446;-68
2021/05/09 17:15:48;;;;;;;11.60;11.10;;;28.90;38.30;;;;;;4991388;28;20972;-68
2021/05/09 17:18:14;;;;;;;10.90;10.40;;;28.90;38.40;;;;;;4990919;28;20463;-68
2021/05/09 17:20:40;;;;;;;11.37;10.97;;;28.80;38.60;;;;;;4998645;28;20447;-68
2021/05/09 17:23:07;;;;;;;11.10;10.70;;;28.80;39.20;;;;;;4999765;28;20474;-68
2021/05/09 17:25:34;;;;;;;10.60;10.20;;;28.70;39.50;;;;;;5000549;28;20458;-68
2021/05/09 17:28:00;;;;;;;11.20;10.80;;;28.70;39.40;;;;;;5004618;28;20442;-68
2021/05/09 17:30:27;;;;;;;12.00;11.40;;;28.60;39.90;;;;;;5010617;28;20684;-68
2021/05/09 17:32:54;;;;;;;11.20;10.50;;;28.60;40.30;;;;;;5010724;28;20453;-68
2021/05/09 17:35:21;;;;;;;10.37;9.97;;;28.40;40.80;;;;;;5010518;28;20457;-68
2021/05/09 17:37:48;;;;;;;9.93;9.63;;;28.30;39.80;;;;;;5010723;28;20477;-68
2021/05/09 17:40:16;;;;;;;11.43;10.93;;;28.30;39.40;;;;;;5010509;28;20481;-68
2021/05/09 17:42:43;;;;;;;10.43;10.03;;;28.20;39.30;;;;;;5010486;28;20504;-68
2021/05/09 17:45:11;;;;;;;9.87;9.57;;;28.10;39.60;;;;;;5010198;28;20449;-68
2021/05/09 17:47:38;;;;;;;10.60;10.20;;;28.00;39.50;;;;;;5010357;28;20972;-69
2021/05/09 17:50:06;;;;;;;10.80;10.30;;;27.90;39.70;;;;;;5010840;28;20450;-69
2021/05/09 17:52:32;;;;;;;11.43;10.83;;;27.80;39.70;;;;;;5010347;28;20445;-69
2021/05/09 17:54:59;;;;;;;10.50;10.10;;;27.80;39.50;;;;;;5010467;28;20473;-71
2021/05/09 17:57:26;;;;;;;8.40;8.00;;;27.80;39.90;;;;;;5009684;28;20628;-68
2021/05/09 17:59:52;;;;;;;7.85;7.35;;;27.70;40.10;;;;;;5009260;28;20462;-69
2021/05/09 18:02:18;;;;;;;10.50;10.10;;;27.70;39.60;;;;;;5010169;28;20230;-69
2021/05/09 18:04:44;;;;;;;10.40;10.10;;;27.60;39.50;;;;;;5010599;28;20542;-69
2021/05/09 18:07:10;;;;;;;10.90;10.30;;;27.60;39.40;;;;;;5010474;28;20804;-69
2021/05/09 18:09:41;;;;;;;11.60;11.20;;;27.50;39.60;;;;;;5010082;28;20978;-69
2021/05/09 18:12:08;;;;;;;11.63;11.23;;;27.50;39.60;;;;;;5010450;28;20457;-69
2021/05/09 18:14:36;;;;;;;10.37;10.07;;;27.40;39.90;;;;;;5010135;28;20553;-69